createdAt,value
2023-03-08T00:01:57.564Z,6.60
2023-03-08T00:04:24.328Z,7.07
2023-03-08T00:06:50.944Z,7.47
2023-03-08T00:09:17.495Z,7.68
2023-03-08T00:11:44.033Z,8.23
2023-03-08T00:14:10.611Z,6.35
2023-03-08T00:16:37.088Z,6.80
2023-03-08T00:19:03.656Z,7.97
2023-03-08T00:21:30.151Z,8.07
2023-03-08T00:23:56.673Z,7.82
2023-03-08T00:26:23.416Z,7.85
2023-03-08T00:28:50.457Z,7.28
2023-03-08T00:31:17.186Z,7.72
2023-03-08T00:33:43.737Z,8.02
2023-03-08T00:36:14.945Z,7.75
2023-03-08T00:38:42.013Z,7.13
2023-03-08T00:41:08.865Z,7.80
2023-03-08T00:43:35.950Z,7.97
2023-03-08T00:46:02.587Z,7.60
2023-03-08T00:48:29.117Z,7.68
2023-03-08T00:50:55.634Z,6.22
2023-03-08T00:53:22.153Z,7.97
2023-03-08T00:55:59.098Z,8.43
2023-03-08T00:58:27.748Z,7.28
2023-03-08T01:00:54.776Z,7.60
2023-03-08T01:03:24.391Z,8.02
2023-03-08T01:05:53.826Z,8.82
2023-03-08T01:08:22.583Z,6.57
2023-03-08T01:10:56.885Z,7.50
2023-03-08T01:13:25.846Z,8.73
2023-03-08T01:15:52.644Z,7.93
2023-03-08T01:18:19.416Z,7.25
2023-03-08T01:20:54.467Z,7.82
2023-03-08T01:23:20.943Z,8.05
2023-03-08T01:25:47.406Z,7.28
2023-03-08T01:28:13.887Z,8.57
2023-03-08T01:30:40.398Z,8.32
2023-03-08T01:33:06.910Z,7.72
2023-03-08T01:35:33.431Z,7.80
2023-03-08T01:37:59.967Z,7.22
2023-03-08T01:40:26.406Z,7.68
2023-03-08T01:42:52.940Z,7.50
2023-03-08T01:45:56.942Z,8.32
2023-03-08T01:48:30.293Z,6.65
2023-03-08T01:50:57.784Z,6.95
2023-03-08T01:53:25.532Z,7.78
2023-03-08T01:55:52.555Z,7.47
2023-03-08T01:58:19.073Z,8.30
2023-03-08T02:00:45.606Z,7.47
2023-03-08T02:03:12.177Z,8.02
2023-03-08T02:05:43.343Z,8.25
2023-03-08T02:08:10.184Z,7.47
2023-03-08T02:10:38.014Z,7.80
2023-03-08T02:13:06.546Z,7.18
2023-03-08T02:15:33.187Z,7.32
2023-03-08T02:17:59.759Z,7.30
2023-03-08T02:20:30.862Z,7.13
2023-03-08T02:23:09.062Z,7.13
2023-03-08T02:25:35.559Z,7.78
2023-03-08T02:28:03.049Z,7.32
2023-03-08T02:30:35.881Z,6.82
2023-03-08T02:33:02.588Z,6.70
2023-03-08T02:35:29.815Z,7.68
2023-03-08T02:37:56.568Z,7.22
2023-03-08T02:40:23.106Z,8.07
2023-03-08T02:42:51.201Z,8.55
2023-03-08T02:45:19.448Z,7.22
2023-03-08T02:47:45.931Z,7.18
2023-03-08T02:50:12.418Z,7.55
2023-03-08T02:52:38.897Z,7.78
2023-03-08T02:55:05.921Z,7.50
2023-03-08T02:57:32.397Z,7.43
2023-03-08T02:59:58.904Z,7.05
2023-03-08T03:02:25.421Z,7.05
2023-03-08T03:04:51.927Z,7.28
2023-03-08T03:07:18.397Z,7.38
2023-03-08T03:09:44.879Z,7.18
2023-03-08T03:12:11.338Z,8.10
2023-03-08T03:14:37.819Z,6.63
2023-03-08T03:17:04.329Z,6.88
2023-03-08T03:19:31.099Z,7.32
2023-03-08T03:21:57.589Z,6.40
2023-03-08T03:24:24.120Z,6.75
2023-03-08T03:26:51.673Z,6.78
2023-03-08T03:29:18.274Z,6.60
2023-03-08T03:31:44.933Z,6.05
2023-03-08T03:34:11.510Z,6.82
2023-03-08T03:36:38.003Z,5.53
2023-03-08T03:39:04.666Z,6.03
2023-03-08T03:41:31.292Z,8.15
2023-03-08T03:43:58.982Z,6.43
2023-03-08T03:46:25.489Z,6.25
2023-03-08T03:48:52.102Z,6.65
2023-03-08T03:51:20.801Z,6.50
2023-03-08T03:53:48.728Z,7.78
2023-03-08T03:56:23.421Z,8.02
2023-03-08T03:58:50.882Z,6.70
2023-03-08T04:01:24.609Z,8.85
2023-03-08T04:03:52.769Z,7.30
2023-03-08T04:06:22.254Z,9.32
2023-03-08T04:08:49.650Z,6.72
2023-03-08T04:11:19.164Z,7.85
2023-03-08T04:13:46.191Z,7.15
2023-03-08T04:16:30.580Z,8.50
2023-03-08T04:19:02.878Z,8.55
2023-03-08T04:21:29.654Z,8.77
2023-03-08T04:23:59.445Z,9.82
2023-03-08T04:26:26.981Z,9.30
2023-03-08T04:28:53.542Z,9.45
2023-03-08T04:31:28.485Z,9.45
2023-03-08T04:33:55.614Z,10.63
2023-03-08T04:36:22.838Z,8.50
2023-03-08T04:38:50.246Z,9.82
2023-03-08T04:41:17.166Z,8.55
2023-03-08T04:43:50.941Z,8.57
2023-03-08T04:46:19.599Z,9.20
2023-03-08T04:48:46.812Z,8.55
2023-03-08T04:51:15.097Z,9.48
2023-03-08T04:53:44.557Z,8.27
2023-03-08T04:56:12.150Z,8.05
2023-03-08T04:58:39.048Z,9.63
2023-03-08T05:01:14.246Z,9.52
2023-03-08T05:03:41.552Z,10.07
2023-03-08T05:06:08.623Z,9.90
2023-03-08T05:08:35.673Z,13.50
2023-03-08T05:11:02.854Z,14.73
2023-03-08T05:13:32.277Z,12.45
2023-03-08T05:15:59.245Z,13.65
2023-03-08T05:18:26.289Z,13.15
2023-03-08T05:20:57.749Z,16.30
2023-03-08T05:23:28.488Z,16.25
2023-03-08T05:25:57.972Z,14.23
2023-03-08T05:28:26.141Z,12.43
2023-03-08T05:31:11.750Z,11.27
2023-03-08T05:33:39.213Z,10.95
2023-03-08T05:36:07.037Z,10.02
2023-03-08T05:38:34.066Z,9.68
2023-03-08T05:41:02.170Z,9.85
2023-03-08T05:43:28.869Z,9.88
2023-03-08T05:46:02.270Z,9.13
2023-03-08T05:48:30.717Z,10.30
2023-03-08T05:50:57.880Z,9.70
2023-03-08T05:53:24.705Z,10.45
2023-03-08T05:55:51.292Z,12.32
2023-03-08T05:58:17.812Z,13.98
2023-03-08T06:00:44.365Z,15.98
2023-03-08T06:03:10.949Z,12.95
2023-03-08T06:05:37.712Z,10.45
2023-03-08T06:08:04.483Z,11.80
2023-03-08T06:10:31.041Z,13.07
2023-03-08T06:12:57.535Z,12.20
2023-03-08T06:15:24.061Z,10.30
2023-03-08T06:17:53.948Z,9.85
2023-03-08T06:20:20.898Z,8.73
2023-03-08T06:22:47.811Z,10.90
2023-03-08T06:25:14.382Z,8.93
2023-03-08T06:27:41.013Z,9.23
2023-03-08T06:30:07.982Z,7.82
2023-03-08T06:32:35.993Z,9.45
2023-03-08T06:35:02.653Z,8.90
2023-03-08T06:37:33.128Z,9.63
2023-03-08T06:39:59.714Z,7.80
2023-03-08T06:42:40.219Z,7.60
2023-03-08T06:45:08.282Z,7.75
2023-03-08T06:47:34.918Z,7.45
2023-03-08T06:50:01.502Z,8.50
2023-03-08T06:52:28.015Z,8.43
2023-03-08T06:54:54.532Z,7.85
2023-03-08T06:57:20.970Z,7.43
2023-03-08T06:59:47.462Z,8.32
2023-03-08T07:02:13.964Z,10.40
2023-03-08T07:04:40.474Z,10.15
2023-03-08T07:07:07.923Z,11.57
2023-03-08T07:09:34.724Z,11.00
2023-03-08T07:12:01.215Z,14.40
2023-03-08T07:14:27.783Z,15.27
2023-03-08T07:16:54.276Z,14.88
2023-03-08T07:19:20.842Z,12.73
2023-03-08T07:21:47.341Z,11.50
2023-03-08T07:24:13.817Z,11.30
2023-03-08T07:26:40.463Z,13.02
2023-03-08T07:29:08.084Z,10.77
2023-03-08T07:31:36.277Z,8.65
2023-03-08T07:34:05.574Z,8.30
2023-03-08T07:36:33.354Z,8.70
2023-03-08T07:38:59.896Z,8.07
2023-03-08T07:41:30.435Z,8.02
2023-03-08T07:43:56.899Z,8.38
2023-03-08T07:46:23.613Z,9.07
2023-03-08T07:48:55.078Z,8.32
2023-03-08T07:51:23.044Z,7.82
2023-03-08T07:53:51.108Z,7.93
2023-03-08T07:56:17.609Z,8.80
2023-03-08T07:58:44.238Z,7.80
2023-03-08T08:01:12.152Z,8.88
2023-03-08T08:03:39.217Z,8.43
2023-03-08T08:06:06.947Z,7.75
2023-03-08T08:08:33.474Z,8.85
2023-03-08T08:11:00.056Z,10.88
2023-03-08T08:13:26.597Z,11.48
2023-03-08T08:16:00.380Z,8.55
2023-03-08T08:18:27.844Z,9.05
2023-03-08T08:21:06.299Z,8.45
2023-03-08T08:23:33.195Z,9.10
2023-03-08T08:25:59.790Z,8.90
2023-03-08T08:28:27.460Z,8.27
2023-03-08T08:30:59.514Z,7.70
2023-03-08T08:33:27.383Z,7.55
2023-03-08T08:35:54.017Z,8.52
2023-03-08T08:38:20.571Z,8.85
2023-03-08T08:40:47.166Z,7.90
2023-03-08T08:43:14.047Z,9.60
2023-03-08T08:45:48.502Z,8.82
2023-03-08T08:48:15.238Z,8.88
2023-03-08T08:50:42.874Z,9.43
2023-03-08T08:53:10.319Z,8.90
2023-03-08T08:55:36.877Z,9.50
2023-03-08T08:58:04.811Z,8.23
2023-03-08T09:00:33.571Z,10.18
2023-03-08T09:03:04.814Z,10.38
2023-03-08T09:05:31.993Z,8.88
2023-03-08T09:08:00.576Z,10.15
2023-03-08T09:10:29.384Z,9.93
2023-03-08T09:12:57.739Z,9.38
2023-03-08T09:15:25.340Z,8.88
2023-03-08T09:17:51.863Z,9.13
2023-03-08T09:20:19.791Z,8.90
2023-03-08T09:22:47.120Z,9.00
2023-03-08T09:25:14.272Z,8.85
2023-03-08T09:27:42.009Z,10.25
2023-03-08T09:30:14.516Z,10.00
2023-03-08T09:32:41.136Z,10.15
2023-03-08T09:35:10.057Z,9.20
2023-03-08T09:37:36.588Z,7.15
2023-03-08T09:40:09.483Z,8.00
2023-03-08T09:42:38.217Z,8.82
2023-03-08T09:45:17.766Z,8.63
2023-03-08T09:47:51.560Z,9.82
2023-03-08T09:50:33.928Z,8.55
2023-03-08T09:53:10.943Z,8.90
2023-03-08T09:55:46.222Z,9.43
2023-03-08T09:58:31.519Z,9.68
2023-03-08T10:01:06.599Z,8.85
2023-03-08T10:03:54.327Z,9.50
2023-03-08T10:06:34.328Z,7.57
2023-03-08T10:09:26.711Z,6.80
2023-03-08T10:12:03.361Z,6.80
2023-03-08T10:14:36.856Z,6.72
2023-03-08T10:17:12.115Z,8.05
2023-03-08T10:20:01.817Z,6.93
2023-03-08T10:22:34.291Z,5.97
2023-03-08T10:25:22.682Z,5.97
2023-03-08T10:27:52.361Z,7.40
2023-03-08T10:30:22.325Z,7.50
2023-03-08T10:32:56.411Z,7.32
2023-03-08T10:35:53.646Z,7.60
2023-03-08T10:38:20.489Z,8.18
2023-03-08T10:40:47.297Z,8.35
2023-03-08T10:43:39.857Z,8.35
2023-03-08T10:46:12.965Z,7.75
2023-03-08T10:48:39.826Z,7.55
2023-03-08T10:51:21.864Z,6.97
2023-03-08T10:54:04.199Z,6.47
2023-03-08T10:56:38.715Z,7.55
2023-03-08T10:59:07.242Z,8.88
2023-03-08T11:01:47.426Z,7.43
2023-03-08T11:04:16.839Z,6.85
2023-03-08T11:06:43.955Z,7.18
2023-03-08T11:09:31.384Z,6.68
2023-03-08T11:11:59.213Z,7.40
2023-03-08T11:14:27.840Z,7.03
2023-03-08T11:17:21.559Z,8.13
2023-03-08T11:20:18.345Z,7.88
2023-03-08T11:22:58.070Z,7.72
2023-03-08T11:26:00.907Z,7.78
2023-03-08T11:28:45.651Z,8.35
2023-03-08T11:31:13.252Z,8.30
2023-03-08T11:33:51.925Z,7.70
2023-03-08T11:36:53.640Z,7.38
2023-03-08T11:39:32.788Z,6.82
2023-03-08T11:42:25.934Z,7.22
2023-03-08T11:45:11.968Z,6.75
2023-03-08T11:47:53.931Z,6.50
2023-03-08T11:50:29.265Z,7.07
2023-03-08T11:53:17.084Z,7.30
2023-03-08T11:56:05.471Z,6.05
2023-03-08T11:58:52.736Z,6.63
2023-03-08T12:01:24.327Z,6.68
2023-03-08T12:03:55.214Z,7.40
2023-03-08T12:06:30.843Z,6.78
2023-03-08T12:09:05.602Z,6.47
2023-03-08T12:11:38.481Z,7.65
2023-03-08T12:14:18.754Z,7.45
2023-03-08T12:16:59.709Z,6.85
2023-03-08T12:19:39.838Z,7.57
2023-03-08T12:22:28.601Z,8.00
2023-03-08T12:24:58.655Z,7.82
2023-03-08T12:30:28.276Z,7.63
2023-03-08T12:32:56.519Z,7.00
2023-03-08T12:35:23.159Z,8.15
2023-03-08T12:38:15.543Z,8.27
2023-03-08T12:40:48.097Z,7.70
2023-03-08T12:43:27.740Z,8.13
2023-03-08T12:45:57.005Z,7.20
2023-03-08T12:48:37.888Z,7.63
2023-03-08T12:51:19.493Z,9.38
2023-03-08T12:53:55.589Z,9.55
2023-03-08T12:56:35.742Z,8.02
2023-03-08T13:01:40.596Z,7.13
2023-03-08T13:04:41.796Z,8.68
2023-03-08T13:07:22.289Z,7.30
2023-03-08T13:10:15.077Z,7.70
2023-03-08T13:13:05.038Z,8.23
2023-03-08T13:15:31.654Z,8.27
2023-03-08T13:18:11.046Z,7.35
2023-03-08T13:20:41.782Z,6.88
2023-03-08T13:23:22.509Z,7.25
2023-03-08T13:26:07.821Z,8.25
2023-03-08T13:28:47.723Z,7.22
2023-03-08T13:31:20.731Z,8.43
2023-03-08T13:33:53.178Z,7.97
2023-03-08T13:36:33.463Z,7.30
2023-03-08T13:39:04.083Z,7.28
2023-03-08T13:41:34.763Z,8.55
2023-03-08T13:44:04.104Z,7.35
2023-03-08T13:46:31.083Z,7.47
2023-03-08T13:48:57.993Z,6.95
2023-03-08T13:51:27.975Z,7.32
2023-03-08T13:53:55.658Z,7.25
2023-03-08T13:56:26.135Z,7.20
2023-03-08T13:58:56.929Z,7.90
2023-03-08T14:01:25.695Z,6.85
2023-03-08T14:03:55.467Z,7.93
2023-03-08T14:06:30.169Z,7.75
2023-03-08T14:08:59.499Z,7.43
2023-03-08T14:11:34.768Z,8.73
2023-03-08T14:14:04.674Z,8.27
2023-03-08T14:16:34.939Z,7.53
2023-03-08T14:19:32.404Z,6.18
2023-03-08T14:22:01.929Z,6.88
2023-03-08T14:24:31.040Z,7.40
2023-03-08T14:27:05.602Z,7.15
2023-03-08T14:29:36.589Z,6.22
2023-03-08T14:32:06.646Z,7.70
2023-03-08T14:34:36.458Z,7.63
2023-03-08T14:37:08.197Z,7.90
2023-03-08T14:39:36.626Z,7.68
2023-03-08T14:42:24.830Z,7.95
2023-03-08T14:45:04.159Z,8.38
2023-03-08T14:47:40.114Z,8.52
2023-03-08T14:50:09.344Z,8.20
2023-03-08T14:52:44.117Z,8.27
2023-03-08T14:55:32.006Z,8.77
2023-03-08T14:58:03.669Z,8.73
2023-03-08T15:00:31.623Z,10.32
2023-03-08T15:02:59.418Z,8.80
2023-03-08T15:05:29.515Z,9.15
2023-03-08T15:07:57.706Z,22.95
2023-03-08T15:10:36.596Z,10.15
2023-03-08T15:13:04.668Z,7.55
2023-03-08T15:15:31.144Z,9.80
2023-03-08T15:17:57.704Z,8.40
2023-03-08T15:20:25.085Z,8.02
2023-03-08T15:22:56.166Z,9.20
2023-03-08T15:25:34.680Z,9.63
2023-03-08T15:28:01.479Z,8.88
2023-03-08T15:30:30.023Z,8.20
2023-03-08T15:32:59.448Z,8.70
2023-03-08T15:35:26.113Z,8.80
2023-03-08T15:37:52.619Z,7.47
2023-03-08T15:40:23.982Z,8.70
2023-03-08T15:42:50.597Z,9.55
2023-03-08T15:45:17.445Z,7.22
2023-03-08T15:47:44.137Z,7.20
2023-03-08T15:50:16.828Z,7.47
2023-03-08T15:52:44.342Z,8.40
2023-03-08T15:55:12.858Z,7.03
2023-03-08T15:57:40.200Z,7.70
2023-03-08T16:00:09.543Z,7.68
2023-03-08T16:02:36.274Z,7.05
2023-03-08T16:05:04.477Z,6.93
2023-03-08T16:07:31.203Z,6.40
2023-03-08T16:09:57.977Z,6.50
2023-03-08T16:12:24.917Z,6.97
2023-03-08T16:14:54.719Z,7.28
2023-03-08T16:17:21.509Z,6.35
2023-03-08T16:19:48.077Z,5.90
2023-03-08T16:22:14.654Z,5.13
2023-03-08T16:24:41.156Z,5.45
2023-03-08T16:27:07.657Z,5.55
2023-03-08T16:29:34.206Z,4.18
2023-03-08T16:32:01.078Z,5.32
2023-03-08T16:34:28.884Z,4.10
2023-03-08T16:36:56.089Z,3.70
2023-03-08T16:39:23.892Z,4.05
2023-03-08T16:41:50.528Z,3.42
2023-03-08T16:44:26.592Z,2.75
2023-03-08T16:46:53.710Z,2.92
2023-03-08T16:49:22.726Z,2.50
2023-03-08T16:51:51.890Z,2.42
2023-03-08T16:54:18.353Z,2.27
2023-03-08T16:56:44.865Z,2.80
2023-03-08T16:59:13.789Z,1.98
2023-03-08T17:01:42.524Z,2.50
2023-03-08T17:04:10.604Z,1.98
2023-03-08T17:06:37.890Z,2.03
2023-03-08T17:09:05.700Z,1.45
2023-03-08T17:11:34.341Z,1.65
2023-03-08T17:14:06.268Z,1.52
2023-03-08T17:16:33.820Z,1.90
2023-03-08T17:19:01.272Z,1.75
2023-03-08T17:21:28.890Z,1.83
2023-03-08T17:23:55.557Z,2.25
2023-03-08T17:26:23.226Z,2.65
2023-03-08T17:28:51.668Z,2.13
2023-03-08T17:31:21.064Z,2.20
2023-03-08T17:33:48.210Z,2.28
2023-03-08T17:36:15.799Z,2.42
2023-03-08T17:38:42.710Z,2.40
2023-03-08T17:41:14.477Z,2.28
2023-03-08T17:43:41.834Z,1.88
2023-03-08T17:46:12.807Z,1.92
2023-03-08T17:48:39.670Z,2.28
2023-03-08T17:51:08.672Z,2.35
2023-03-08T17:53:35.808Z,3.05
2023-03-08T17:56:06.427Z,2.47
2023-03-08T17:58:33.662Z,2.97
2023-03-08T18:01:14.842Z,3.30
2023-03-08T18:03:41.873Z,3.90
2023-03-08T18:06:18.426Z,3.80
2023-03-08T18:08:45.211Z,3.60
2023-03-08T18:11:11.752Z,3.80
2023-03-08T18:13:40.589Z,3.72
2023-03-08T18:16:07.378Z,4.43
2023-03-08T18:18:34.122Z,4.38
2023-03-08T18:21:12.701Z,4.13
2023-03-08T18:23:41.778Z,4.38
2023-03-08T18:26:10.205Z,4.38
2023-03-08T18:28:36.794Z,4.47
2023-03-08T18:31:12.580Z,4.25
2023-03-08T18:33:39.337Z,4.90
2023-03-08T18:36:06.365Z,5.00
2023-03-08T18:38:33.248Z,4.00
2023-03-08T18:41:00.149Z,4.63
2023-03-08T18:43:26.699Z,4.30
2023-03-08T18:45:55.043Z,3.90
2023-03-08T18:48:23.447Z,3.90
2023-03-08T18:50:50.025Z,3.33
2023-03-08T18:53:16.703Z,4.68
2023-03-08T18:55:56.604Z,4.32
2023-03-08T18:58:24.529Z,6.82
2023-03-08T19:00:56.895Z,5.72
2023-03-08T19:03:23.583Z,5.50
2023-03-08T19:05:50.140Z,5.80
2023-03-08T19:08:16.662Z,5.35
2023-03-08T19:10:43.133Z,3.97
2023-03-08T19:13:09.660Z,8.57
2023-03-08T19:15:38.105Z,7.03
2023-03-08T19:18:06.142Z,7.28
2023-03-08T19:20:37.006Z,9.05
2023-03-08T19:23:03.858Z,7.38
2023-03-08T19:25:55.857Z,4.75
2023-03-08T19:28:23.131Z,5.60
2023-03-08T19:30:49.623Z,4.85
2023-03-08T19:33:29.589Z,4.18
2023-03-08T19:35:57.252Z,5.55
2023-03-08T19:38:23.926Z,5.38
2023-03-08T19:40:50.420Z,4.93
2023-03-08T19:43:16.937Z,4.55
2023-03-08T19:45:48.877Z,4.05
2023-03-08T19:48:15.565Z,4.07
2023-03-08T19:50:46.148Z,4.07
2023-03-08T19:53:12.770Z,3.47
2023-03-08T19:55:51.589Z,2.83
2023-03-08T19:58:18.969Z,3.40
2023-03-08T20:00:46.916Z,3.95
2023-03-08T20:03:15.809Z,3.58
2023-03-08T20:05:44.436Z,3.40
2023-03-08T20:08:12.501Z,3.15
2023-03-08T20:10:39.634Z,3.65
2023-03-08T20:13:06.140Z,2.58
2023-03-08T20:15:32.688Z,2.03
2023-03-08T20:17:59.273Z,1.85
2023-03-08T20:20:25.861Z,1.98
2023-03-08T20:22:52.369Z,2.65
2023-03-08T20:25:18.893Z,2.40
2023-03-08T20:27:45.436Z,2.72
2023-03-08T20:30:12.628Z,2.22
2023-03-08T20:32:39.274Z,2.60
2023-03-08T20:35:06.908Z,2.72
2023-03-08T20:37:33.765Z,1.83
2023-03-08T20:40:02.536Z,2.17
2023-03-08T20:42:31.070Z,1.77
2023-03-08T20:44:57.555Z,1.63
2023-03-08T20:47:24.075Z,1.77
2023-03-08T20:49:50.602Z,1.95
2023-03-08T20:52:17.114Z,1.55
2023-03-08T20:54:43.659Z,1.83
2023-03-08T20:57:10.403Z,2.13
2023-03-08T20:59:36.899Z,2.17
2023-03-08T21:02:03.624Z,1.92
2023-03-08T21:04:30.690Z,1.70
2023-03-08T21:06:57.385Z,2.30
2023-03-08T21:09:23.867Z,1.95
2023-03-08T21:11:50.382Z,1.75
2023-03-08T21:14:16.903Z,1.60
2023-03-08T21:16:43.532Z,2.05
2023-03-08T21:19:10.304Z,2.08
2023-03-08T21:21:42.089Z,2.10
2023-03-08T21:24:13.894Z,1.98
2023-03-08T21:26:40.644Z,1.92
2023-03-08T21:29:09.317Z,2.45
2023-03-08T21:31:39.484Z,2.42
2023-03-08T21:34:07.358Z,1.85
2023-03-08T21:36:35.129Z,2.20
2023-03-08T21:39:01.718Z,2.33
2023-03-08T21:41:31.554Z,1.83
2023-03-08T21:43:59.263Z,2.13
2023-03-08T21:46:25.930Z,2.65
2023-03-08T21:48:54.276Z,2.55
2023-03-08T21:51:21.013Z,3.10
2023-03-08T21:53:47.817Z,2.45
2023-03-08T21:56:16.646Z,2.58
2023-03-08T21:58:44.180Z,2.78
2023-03-08T22:01:22.720Z,2.03
2023-03-08T22:03:49.929Z,2.65
2023-03-08T22:06:16.914Z,2.60
2023-03-08T22:08:43.479Z,2.17
2023-03-08T22:11:10.534Z,1.90
2023-03-08T22:13:38.547Z,2.20
2023-03-08T22:16:05.595Z,1.92
2023-03-08T22:18:32.378Z,2.65
2023-03-08T22:20:59.648Z,2.10
2023-03-08T22:23:26.911Z,2.47
2023-03-08T22:25:54.642Z,2.08
2023-03-08T22:28:21.541Z,2.03
2023-03-08T22:30:48.224Z,2.58
2023-03-08T22:33:15.011Z,2.95
2023-03-08T22:35:47.887Z,3.15
2023-03-08T22:38:15.469Z,2.60
2023-03-08T22:40:42.855Z,2.50
2023-03-08T22:43:09.967Z,2.53
2023-03-08T22:45:36.784Z,2.95
2023-03-08T22:48:04.550Z,4.20
2023-03-08T22:50:31.048Z,3.63
2023-03-08T22:52:57.649Z,3.83
2023-03-08T22:55:24.155Z,4.13
2023-03-08T22:57:50.675Z,4.50
2023-03-08T23:00:17.389Z,3.53
2023-03-08T23:02:45.529Z,5.43
2023-03-08T23:05:13.672Z,4.22
2023-03-08T23:07:40.189Z,4.13
2023-03-08T23:10:07.065Z,4.68
2023-03-08T23:12:33.577Z,4.35
2023-03-08T23:15:00.168Z,3.83
2023-03-08T23:17:26.707Z,4.30
2023-03-08T23:19:53.211Z,4.07
2023-03-08T23:22:19.752Z,4.35
2023-03-08T23:24:46.220Z,4.15
2023-03-08T23:27:12.799Z,3.97
2023-03-08T23:29:39.357Z,4.00
2023-03-08T23:32:06.477Z,3.63
2023-03-08T23:34:33.644Z,3.65
2023-03-08T23:37:03.748Z,4.25
2023-03-08T23:41:57.508Z,4.10
2023-03-08T23:44:24.036Z,4.32
2023-03-08T23:46:50.568Z,3.45
2023-03-08T23:49:17.317Z,4.00
2023-03-08T23:51:44.002Z,3.10
2023-03-08T23:54:11.774Z,4.10
2023-03-08T23:56:40.162Z,3.53
2023-03-08T23:59:19.219Z,3.88
